Time;durP1;ratioP1;P1;durP2;ratioP2;P2;SDS_P1;SDS_P2;PMS_P1;PMS_P2;Temp;Humidity;BMP_temperature;BMP_pressure;BME280_temperature;BME280_humidity;BME280_pressure;Samples;Min_cycle;Max_cycle;Signal;HPM_P1;HPM_P2
2022/01/30 00:00:07;;;;;;;5.55;1.85;;;;;;;2.88;73.38;96261.73;1760727;81;25755;-80
2022/01/30 00:02:35;;;;;;;2.58;1.60;;;;;;;2.92;73.35;96266.16;1761355;80;25241;-81
2022/01/30 00:05:02;;;;;;;4.08;2.00;;;;;;;2.94;73.26;96273.97;1763104;81;28162;-84
2022/01/30 00:07:29;;;;;;;5.08;2.20;;;;;;;2.95;73.19;96272.45;1762331;79;25745;-84
2022/01/30 00:09:56;;;;;;;3.87;2.00;;;;;;;2.95;73.12;96276.45;1762444;81;25775;-84
2022/01/30 00:12:33;;;;;;;3.35;1.92;;;;;;;2.96;73.12;96275.94;1763272;81;25766;-83
2022/01/30 00:14:54;;;;;;;4.78;1.87;;;;;;;2.97;73.06;96259.76;1762311;81;25723;-83
2022/01/30 00:17:24;;;;;;;1.95;1.30;;;;;;;3.00;73.06;96259.89;1763363;80;28185;-83
2022/01/30 00:19:59;;;;;;;2.20;1.32;;;;;;;3.03;73.02;96240.82;1762915;80;25648;-83
2022/01/30 00:25:06;;;;;;;1.22;0.95;;;;;;;3.13;72.91;96232.83;1763344;80;25778;-84
2022/01/30 00:27:44;;;;;;;1.87;1.20;;;;;;;3.18;72.82;96222.90;1763195;79;26282;-86
2022/01/30 00:29:58;;;;;;;4.78;1.57;;;;;;;3.26;72.73;96231.57;1761747;80;27413;-84
2022/01/30 00:32:25;;;;;;;4.62;2.00;;;;;;;3.31;72.60;96235.00;1763326;80;25744;-83
2022/01/30 00:34:51;;;;;;;1.87;1.05;;;;;;;3.37;72.48;96241.41;1763349;80;25734;-83
2022/01/30 00:37:18;;;;;;;3.42;1.90;;;;;;;3.40;72.37;96250.34;1763461;79;25732;-83
2022/01/30 00:39:44;;;;;;;2.98;1.42;;;;;;;3.42;72.31;96247.80;1763449;81;26279;-83
2022/01/30 00:42:11;;;;;;;3.50;1.17;;;;;;;3.47;72.21;96258.72;1756222;80;28086;-85
2022/01/30 00:44:38;;;;;;;3.87;1.45;;;;;;;3.51;72.10;96256.47;1754692;80;25737;-83
2022/01/30 00:47:08;;;;;;;2.52;1.30;;;;;;;3.53;72.04;96251.77;1754733;81;26486;-84
2022/01/30 00:49:34;;;;;;;1.82;1.20;;;;;;;3.52;71.99;96248.27;1754742;81;25715;-83
2022/01/30 00:52:00;;;;;;;3.65;1.70;;;;;;;3.55;71.98;96243.05;1754861;80;25722;-83
2022/01/30 00:54:27;;;;;;;2.22;1.57;;;;;;;3.54;72.02;96235.56;1754919;81;28217;-82
2022/01/30 00:56:53;;;;;;;3.50;1.85;;;;;;;3.53;72.02;96227.75;1754707;81;25681;-82
2022/01/30 00:59:20;;;;;;;2.92;1.57;;;;;;;3.52;72.08;96226.92;1754863;81;25621;-82
2022/01/30 01:01:47;;;;;;;3.47;1.80;;;;;;;3.54;72.12;96240.90;1754388;81;25684;-83
2022/01/30 01:04:14;;;;;;;2.00;1.35;;;;;;;3.54;72.11;96235.56;1754812;81;25827;-83
2022/01/30 01:06:41;;;;;;;4.40;2.08;;;;;;;3.56;72.13;96226.03;1754729;80;27988;-83
2022/01/30 01:09:10;;;;;;;2.60;1.62;;;;;;;3.55;72.11;96222.53;1754685;80;25732;-84
2022/01/30 01:25:03;;;;;;;3.30;1.57;;;;;;;3.57;71.97;96192.48;1754705;80;25699;-84
2022/01/30 01:27:30;;;;;;;2.27;1.50;;;;;;;3.58;71.98;96198.65;1753981;80;25741;-83
2022/01/30 01:29:57;;;;;;;2.75;1.32;;;;;;;3.58;71.96;96189.30;1754351;81;25531;-83
2022/01/30 01:32:23;;;;;;;1.82;1.10;;;;;;;3.58;71.92;96190.13;1754469;81;27351;-83
2022/01/30 01:34:50;;;;;;;2.10;1.50;;;;;;;3.60;71.91;96173.42;1754671;81;25740;-84
2022/01/30 01:37:16;;;;;;;2.15;1.30;;;;;;;3.60;71.89;96176.59;1724310;83;25876;-83
2022/01/30 01:39:43;;;;;;;2.05;1.40;;;;;;;3.62;71.86;96158.55;1722988;83;26223;-83
2022/01/30 01:42:10;;;;;;;1.30;1.20;;;;;;;3.63;71.85;96152.98;1754275;81;25837;-83
2022/01/30 01:44:44;;;;;;;1.35;0.80;;;;;;;3.64;71.85;96139.13;1754522;81;27363;-83
2022/01/30 01:47:12;;;;;;;1.22;0.82;;;;;;;3.64;71.81;96136.47;1753824;81;25708;-82
2022/01/30 01:49:39;;;;;;;0.85;0.80;;;;;;;3.65;71.82;96123.95;1718677;83;25828;-82
2022/01/30 01:54:48;;;;;;;2.20;1.37;;;;;;;3.67;71.80;96124.06;1754471;81;25522;-81
2022/01/30 01:57:15;;;;;;;;;;;;;;;3.72;71.86;96131.48;1756985;81;28035;-81
2022/01/30 01:59:42;;;;;;;2.67;1.30;;;;;;;3.74;71.83;96143.61;1754607;81;25279;-80
2022/01/30 02:02:09;;;;;;;2.00;1.20;;;;;;;3.75;71.86;96152.41;1754700;81;26354;-81
2022/01/30 02:04:37;;;;;;;2.12;1.12;;;;;;;3.76;71.88;96130.87;1754621;81;25949;-81
2022/01/30 02:09:51;;;;;;;1.05;0.78;;;;;;;3.79;71.89;96129.14;1754374;81;28445;-80
2022/01/30 02:12:24;;;;;;;0.80;0.80;;;;;;;3.84;71.92;96148.06;1754648;81;25743;-80
2022/01/30 02:15:04;;;;;;;2.05;1.07;;;;;;;3.91;71.91;96144.89;1753571;81;25325;-81
2022/01/30 02:27:58;;;;;;;2.00;0.90;;;;;;;4.39;69.39;96119.94;1754651;81;25773;-80
2022/01/30 02:30:31;;;;;;;3.85;0.80;;;;;;;4.43;68.57;96130.02;1754183;81;26288;-81
2022/01/30 02:32:55;;;;;;;2.33;0.93;;;;;;;4.48;68.16;96147.58;1718152;83;25911;-81
2022/01/30 02:35:21;;;;;;;6.35;1.37;;;;;;;4.49;67.86;96119.84;1727922;83;27387;-80
2022/01/30 02:37:52;;;;;;;3.25;1.52;;;;;;;4.45;67.94;96123.97;1727836;83;25824;-80
2022/01/30 02:40:17;;;;;;;2.55;0.85;;;;;;;4.43;67.57;96131.36;1727308;83;25793;-82
2022/01/30 02:42:48;;;;;;;3.22;1.00;;;;;;;4.43;67.42;96139.38;1754404;81;25752;-81
2022/01/30 02:45:14;;;;;;;5.25;1.50;;;;;;;4.44;67.43;96162.39;1754295;81;25482;-82
2022/01/30 02:47:54;;;;;;;4.90;1.30;;;;;;;4.42;66.75;96135.56;1754536;81;27618;-81
2022/01/30 02:52:40;;;;;;;7.50;1.50;;;;;;;4.40;66.52;96106.89;1754604;81;25422;-81
2022/01/30 02:55:09;;;;;;;4.80;1.27;;;;;;;4.39;66.21;96140.80;1754602;81;26174;-81
2022/01/30 02:57:36;;;;;;;1.35;0.82;;;;;;;4.42;66.13;96114.19;1754738;81;25791;-82
2022/01/30 03:00:10;;;;;;;4.65;0.93;;;;;;;4.42;65.84;96147.59;1754593;81;28212;-79
2022/01/30 03:02:36;;;;;;;6.03;1.30;;;;;;;4.39;65.18;96175.52;1754646;81;25846;-80
2022/01/30 03:05:04;;;;;;;6.00;1.20;;;;;;;4.39;65.38;96154.16;1754626;81;25750;-80
2022/01/30 03:07:30;;;;;;;6.03;1.70;;;;;;;4.39;65.19;96149.32;1754615;81;25695;-81
2022/01/30 03:09:57;;;;;;;3.72;1.85;;;;;;;4.40;64.70;96138.95;1754729;81;25820;-81
2022/01/30 03:12:23;;;;;;;4.35;1.02;;;;;;;4.40;64.57;96143.78;1754686;81;26804;-82
2022/01/30 03:14:50;;;;;;;8.30;1.50;;;;;;;4.38;63.68;96136.47;1754591;81;25715;-79
2022/01/30 03:17:17;;;;;;;4.45;1.12;;;;;;;4.38;62.97;96150.34;1754672;81;25684;-80
2022/01/30 03:19:44;;;;;;;4.08;1.17;;;;;;;4.40;62.55;96144.29;1754664;81;26159;-80
2022/01/30 03:22:11;;;;;;;4.25;1.00;;;;;;;4.38;62.37;96143.16;1754587;81;25754;-78
2022/01/30 03:24:38;;;;;;;5.33;1.10;;;;;;;4.35;62.33;96152.91;1754589;81;27387;-83
2022/01/30 03:27:06;;;;;;;9.10;1.15;;;;;;;4.33;61.65;96158.48;1754553;81;25723;-79
2022/01/30 03:29:34;;;;;;;7.75;1.37;;;;;;;4.37;61.19;96126.81;1754371;81;25786;-81
2022/01/30 03:32:01;;;;;;;5.85;1.20;;;;;;;4.36;60.41;96151.87;1754556;81;25792;-83
2022/01/30 03:34:28;;;;;;;4.80;1.60;;;;;;;4.37;59.50;96143.35;1754583;81;25246;-78
2022/01/30 03:36:54;;;;;;;10.23;1.40;;;;;;;4.38;59.41;96134.31;1754577;81;27409;-79
2022/01/30 03:39:21;;;;;;;4.12;1.12;;;;;;;4.38;59.80;96144.48;1754540;81;25755;-79
2022/01/30 03:41:48;;;;;;;4.30;1.40;;;;;;;4.35;59.44;96130.19;1754556;81;26432;-80
2022/01/30 03:44:15;;;;;;;5.12;1.57;;;;;;;4.34;59.55;96133.92;1759450;81;25327;-81
2022/01/30 03:46:41;;;;;;;6.58;1.45;;;;;;;4.34;59.56;96133.92;1760280;81;25728;-81
2022/01/30 03:49:08;;;;;;;10.58;1.77;;;;;;;4.33;59.29;96134.43;1760238;81;27358;-80
2022/01/30 03:51:35;;;;;;;3.67;1.12;;;;;;;4.32;59.20;96132.78;1760231;81;25670;-79
2022/01/30 03:54:01;;;;;;;5.72;2.10;;;;;;;4.30;59.55;96110.79;1760367;81;26368;-79
2022/01/30 03:56:28;;;;;;;3.70;1.45;;;;;;;4.27;59.78;96123.72;1760357;81;25785;-79
2022/01/30 03:58:55;;;;;;;4.90;1.15;;;;;;;4.25;59.83;96111.07;1760377;81;25668;-80
2022/01/30 04:01:21;;;;;;;5.60;1.25;;;;;;;4.22;59.97;96116.33;1760380;81;28229;-80
2022/01/30 04:03:48;;;;;;;4.83;1.55;;;;;;;4.20;59.96;96108.20;1760295;81;25755;-80
2022/01/30 04:06:14;;;;;;;5.03;1.67;;;;;;;4.19;59.41;96106.05;1760459;81;25775;-83
2022/01/30 04:08:43;;;;;;;9.45;1.47;;;;;;;4.19;59.32;96098.55;1760411;81;25728;-80
2022/01/30 04:11:11;;;;;;;7.95;1.80;;;;;;;4.17;59.14;96096.59;1760414;81;25814;-82
2022/01/30 04:13:38;;;;;;;4.45;1.37;;;;;;;4.14;59.55;96081.78;1760354;81;27436;-82
2022/01/30 04:16:05;;;;;;;7.40;1.60;;;;;;;4.14;59.77;96095.65;1760301;81;25749;-81
2022/01/30 04:18:32;;;;;;;6.30;1.35;;;;;;;4.11;59.86;96091.53;1760288;81;25262;-79
2022/01/30 04:20:59;;;;;;;8.35;1.70;;;;;;;4.08;59.98;96081.79;1760316;81;26202;-81
2022/01/30 04:23:26;;;;;;;6.80;1.95;;;;;;;4.05;60.02;96070.17;1759836;81;25712;-80
2022/01/30 04:25:53;;;;;;;6.03;2.25;;;;;;;4.03;60.26;96073.04;1760111;81;27598;-81
2022/01/30 04:28:20;;;;;;;7.62;2.22;;;;;;;4.04;60.43;96072.53;1760340;81;26254;-81
2022/01/30 04:30:47;;;;;;;9.05;1.80;;;;;;;4.05;60.56;96078.18;1760311;81;25894;-81
2022/01/30 04:33:14;;;;;;;7.10;1.82;;;;;;;4.04;60.66;96073.86;1759504;81;26167;-81
2022/01/30 04:35:41;;;;;;;6.30;1.70;;;;;;;4.02;60.71;96072.73;1760326;81;26210;-80
2022/01/30 05:02:26;;;;;;;3.67;0.88;;;;;;;3.99;61.68;96009.87;1760485;81;25810;-81
2022/01/30 05:04:52;;;;;;;4.00;1.20;;;;;;;4.01;61.43;96007.51;1758239;81;28481;-81
2022/01/30 05:09:40;;;;;;;4.42;1.20;;;;;;;4.11;60.93;96010.59;1760279;80;25855;-86
2022/01/30 05:12:08;;;;;;;2.98;1.32;;;;;;;4.15;60.67;96029.20;1760360;81;26397;-81
2022/01/30 05:14:36;;;;;;;4.15;1.30;;;;;;;4.19;60.15;96033.94;1760349;81;25651;-81
2022/01/30 05:17:05;;;;;;;3.35;1.27;;;;;;;4.21;59.84;96072.46;1760227;81;27533;-82
2022/01/30 05:19:32;;;;;;;6.15;1.80;;;;;;;4.20;59.00;96053.45;1760162;81;25798;-81
2022/01/30 05:22:00;;;;;;;7.47;1.65;;;;;;;4.17;59.00;96041.84;1760206;81;25688;-84
2022/01/30 05:24:27;;;;;;;6.53;1.45;;;;;;;4.13;58.74;96057.95;1760342;81;25749;-81
2022/01/30 05:26:54;;;;;;;4.75;1.50;;;;;;;4.10;59.10;96067.22;1760320;81;25736;-80
2022/01/30 05:29:21;;;;;;;4.53;1.80;;;;;;;4.04;59.13;96067.19;1760368;81;27363;-82
2022/01/30 05:31:48;;;;;;;6.45;1.60;;;;;;;3.98;59.41;96056.28;1760272;81;25776;-81
2022/01/30 05:34:15;;;;;;;6.85;1.60;;;;;;;3.92;59.38;96070.97;1760363;80;25250;-79
2022/01/30 05:36:44;;;;;;;7.60;1.82;;;;;;;3.86;59.62;96076.62;1760337;81;25664;-81
2022/01/30 05:39:11;;;;;;;6.53;1.70;;;;;;;3.81;59.85;96076.89;1760288;81;25270;-82
2022/01/30 05:41:38;;;;;;;5.70;1.80;;;;;;;3.77;59.92;96073.80;1760246;81;26938;-80
2022/01/30 05:44:18;;;;;;;11.43;2.40;;;;;;;3.75;59.98;96064.34;1755457;80;25819;-86
2022/01/30 05:46:45;;;;;;;4.70;1.25;;;;;;;3.72;60.14;96065.59;1752436;81;26492;-84
2022/01/30 05:49:07;;;;;;;7.40;1.70;;;;;;;3.74;60.01;96056.88;1753641;81;25713;-81
2022/01/30 05:51:33;;;;;;;10.23;2.20;;;;;;;3.69;59.79;96054.48;1754787;81;25691;-80
2022/01/30 05:54:00;;;;;;;4.00;1.00;;;;;;;3.68;59.74;96059.51;1754766;81;27421;-86
2022/01/30 05:56:26;;;;;;;4.75;1.35;;;;;;;3.68;59.20;96052.33;1754671;81;25737;-81
2022/01/30 05:58:53;;;;;;;6.60;1.67;;;;;;;3.66;59.26;96058.88;1754774;80;25808;-83
2022/01/30 06:01:20;;;;;;;4.47;1.52;;;;;;;3.66;58.91;96041.02;1754678;81;25791;-85
2022/01/30 06:03:46;;;;;;;5.37;1.90;;;;;;;3.69;58.85;96047.30;1754578;81;26287;-84
2022/01/30 06:06:13;;;;;;;5.17;1.82;;;;;;;3.68;58.89;96030.98;1754744;80;27366;-82
2022/01/30 06:11:10;;;;;;;4.95;1.47;;;;;;;3.68;58.35;96022.97;1754577;80;25721;-85
2022/01/30 06:13:37;;;;;;;6.92;1.60;;;;;;;3.67;58.10;96002.64;1754545;81;26424;-82
2022/01/30 06:16:05;;;;;;;10.18;1.80;;;;;;;3.67;58.05;96009.31;1754750;80;25827;-81
2022/01/30 06:18:32;;;;;;;6.20;1.17;;;;;;;3.67;58.11;96015.98;1754062;81;27456;-85
2022/01/30 06:20:59;;;;;;;6.03;2.00;;;;;;;3.64;58.06;96015.05;1754517;81;25794;-83
2022/01/30 06:23:26;;;;;;;4.92;1.27;;;;;;;3.45;58.96;96038.50;1754495;80;25745;-81
2022/01/30 06:25:55;;;;;;;4.50;1.42;;;;;;;3.16;60.18;96057.77;1754591;80;26411;-85
2022/01/30 06:28:23;;;;;;;8.33;1.62;;;;;;;2.98;61.10;96060.15;1754048;81;25736;-83
2022/01/30 06:30:50;;;;;;;4.87;1.47;;;;;;;2.82;61.94;96043.95;1754624;81;27365;-81
2022/01/30 06:33:17;;;;;;;8.35;2.40;;;;;;;2.69;62.62;96040.38;1754629;80;25777;-80
2022/01/30 06:35:43;;;;;;;7.15;2.52;;;;;;;2.58;63.56;96052.41;1754575;81;26393;-82
2022/01/30 06:38:10;;;;;;;8.43;2.50;;;;;;;2.50;63.91;96048.56;1754631;81;25765;-85
2022/01/30 06:40:36;;;;;;;8.68;2.17;;;;;;;2.43;64.60;96039.19;1754346;80;25688;-81
2022/01/30 06:43:03;;;;;;;9.48;2.10;;;;;;;2.38;65.11;96046.95;1755745;80;27365;-82
2022/01/30 06:45:30;;;;;;;4.75;1.87;;;;;;;2.38;65.51;96044.28;1763218;81;26226;-83
2022/01/30 06:47:56;;;;;;;9.03;2.47;;;;;;;2.38;65.57;96054.94;1763250;80;25962;-85
2022/01/30 06:50:24;;;;;;;5.33;1.85;;;;;;;2.41;65.97;96027.92;1763222;80;26265;-84
2022/01/30 06:52:50;;;;;;;6.50;2.05;;;;;;;2.43;66.24;96027.20;1763218;79;25786;-86
2022/01/30 06:55:17;;;;;;;7.28;2.05;;;;;;;2.46;66.28;96016.67;1763253;80;27357;-84
2022/01/30 06:57:45;;;;;;;11.20;2.65;;;;;;;2.49;66.10;96041.09;1763103;81;25679;-85
2022/01/30 07:00:13;;;;;;;9.00;2.30;;;;;;;2.59;65.88;96037.25;1763181;79;25759;-85
2022/01/30 07:02:41;;;;;;;6.90;1.80;;;;;;;2.68;65.61;96012.91;1763010;81;25826;-83
2022/01/30 07:05:08;;;;;;;8.08;1.77;;;;;;;2.76;65.35;95999.96;1763218;80;25704;-83
2022/01/30 07:07:36;;;;;;;8.68;2.75;;;;;;;2.82;65.16;96011.15;1763314;81;28054;-82
2022/01/30 07:10:05;;;;;;;7.85;2.42;;;;;;;2.89;65.02;96028.84;1743139;80;26493;-82
2022/01/30 07:12:32;;;;;;;7.45;2.20;;;;;;;2.94;64.95;96024.23;1763162;81;25694;-83
2022/01/30 07:14:58;;;;;;;7.10;2.22;;;;;;;3.02;64.43;96041.92;1763192;81;26139;-83
2022/01/30 07:17:25;;;;;;;8.28;2.85;;;;;;;3.09;64.19;96047.59;1763175;81;25678;-82
2022/01/30 07:19:52;;;;;;;6.55;2.15;;;;;;;3.15;63.89;96030.78;1763187;81;27368;-82
2022/01/30 07:22:19;;;;;;;11.83;2.85;;;;;;;3.20;63.43;96043.03;1763187;81;25759;-83
2022/01/30 07:24:45;;;;;;;6.87;2.00;;;;;;;3.23;63.41;96053.30;1763344;81;25838;-82
2022/01/30 07:27:12;;;;;;;5.15;1.62;;;;;;;3.26;63.24;96043.55;1763258;81;25655;-83
2022/01/30 07:29:38;;;;;;;9.58;2.70;;;;;;;3.32;63.02;96032.61;1763232;81;25724;-83
2022/01/30 07:32:06;;;;;;;12.85;5.33;;;;;;;3.38;62.88;96037.67;1763249;81;28189;-83
2022/01/30 07:34:33;;;;;;;14.03;6.33;;;;;;;3.40;62.83;96008.42;1732759;82;25759;-85
2022/01/30 07:36:59;;;;;;;8.15;2.60;;;;;;;3.41;62.77;96030.58;1731272;82;25907;-85
2022/01/30 07:39:29;;;;;;;16.23;6.55;;;;;;;3.42;62.47;96009.55;1762906;81;25751;-85
2022/01/30 07:41:55;;;;;;;9.08;3.47;;;;;;;3.42;62.38;96009.05;1727050;83;26364;-85
2022/01/30 07:44:22;;;;;;;7.28;2.95;;;;;;;3.44;62.27;95999.00;1737047;82;27596;-85
2022/01/30 07:46:48;;;;;;;9.40;2.87;;;;;;;3.43;61.95;96010.69;1736218;82;25922;-85
2022/01/30 07:49:15;;;;;;;5.75;2.35;;;;;;;3.43;61.98;96008.53;1736254;82;25876;-86
2022/01/30 07:51:42;;;;;;;6.55;2.30;;;;;;;3.45;62.00;95993.16;1736201;82;25890;-85
2022/01/30 07:54:08;;;;;;;6.85;2.17;;;;;;;3.47;61.91;96018.62;1736344;82;25786;-81
2022/01/30 07:56:35;;;;;;;3.47;1.32;;;;;;;3.49;61.73;96005.08;1736248;82;27367;-85
2022/01/30 07:59:01;;;;;;;6.10;1.82;;;;;;;3.50;61.35;96008.06;1736156;82;25703;-83
2022/01/30 08:01:28;;;;;;;8.55;2.27;;;;;;;3.51;61.22;96003.83;1736245;82;25820;-85
2022/01/30 08:03:55;;;;;;;5.70;1.40;;;;;;;3.53;60.72;96022.31;1736230;82;25804;-81
2022/01/30 08:06:21;;;;;;;8.43;1.47;;;;;;;3.57;60.63;96010.22;1736273;82;26478;-86
2022/01/30 08:08:48;;;;;;;6.65;1.80;;;;;;;3.56;60.49;95983.23;1736246;82;27346;-83
2022/01/30 08:11:14;;;;;;;5.65;2.67;;;;;;;3.57;59.96;96000.88;1736159;82;25769;-85
2022/01/30 08:13:41;;;;;;;6.53;1.72;;;;;;;3.56;59.69;96000.57;1736310;82;25649;-85
2022/01/30 08:16:08;;;;;;;7.75;2.47;;;;;;;3.59;59.56;96012.19;1736227;82;25756;-84
2022/01/30 08:18:37;;;;;;;10.88;2.58;;;;;;;3.60;59.10;95969.80;1736270;82;25684;-85
2022/01/30 08:21:04;;;;;;;5.70;1.90;;;;;;;3.62;59.25;95955.75;1736275;82;29231;-83
2022/01/30 08:23:33;;;;;;;5.75;1.57;;;;;;;3.66;59.35;95976.98;1736108;82;25763;-84
2022/01/30 08:26:01;;;;;;;12.65;4.10;;;;;;;3.68;58.93;95990.95;1736264;82;25700;-86
2022/01/30 08:28:28;;;;;;;8.55;2.72;;;;;;;3.70;59.13;95985.41;1736080;82;25759;-84
2022/01/30 08:30:55;;;;;;;10.53;3.37;;;;;;;3.72;58.98;95978.85;1736247;82;25704;-84
2022/01/30 08:33:22;;;;;;;6.05;2.15;;;;;;;3.73;59.10;95967.16;1735926;82;28484;-84
2022/01/30 08:35:50;;;;;;;6.90;2.37;;;;;;;3.75;59.16;95974.42;1736151;82;25644;-84
2022/01/30 08:38:18;;;;;;;5.62;2.17;;;;;;;3.79;59.25;95982.34;1736304;82;25775;-85
2022/01/30 08:40:47;;;;;;;10.43;2.65;;;;;;;3.81;59.34;95966.12;1736102;82;25713;-83
2022/01/30 08:43:15;;;;;;;5.25;1.75;;;;;;;3.82;59.36;95978.45;1736086;82;25776;-85
2022/01/30 08:45:42;;;;;;;6.60;1.60;;;;;;;3.80;59.19;95992.50;1736289;82;27386;-82
2022/01/30 08:48:09;;;;;;;3.87;1.55;;;;;;;3.71;59.22;95991.89;1736245;82;25797;-81
2022/01/30 08:50:36;;;;;;;7.42;2.45;;;;;;;3.57;59.70;95980.88;1736300;82;25676;-84
2022/01/30 08:53:03;;;;;;;8.03;2.70;;;;;;;3.47;60.04;95967.93;1736340;82;26160;-83
2022/01/30 08:55:29;;;;;;;6.80;2.83;;;;;;;3.46;60.31;95958.79;1736358;82;25681;-83
2022/01/30 08:58:07;;;;;;;5.00;2.10;;;;;;;3.49;60.46;95939.72;1736141;82;27430;-83
2022/01/30 09:00:25;;;;;;;9.60;3.37;;;;;;;3.50;60.63;95948.03;1733854;82;25906;-83
2022/01/30 09:02:52;;;;;;;6.03;1.75;;;;;;;3.54;60.58;95945.25;1736497;82;25773;-83
2022/01/30 09:05:18;;;;;;;3.75;1.77;;;;;;;3.56;60.59;95959.22;1736479;82;25772;-83
2022/01/30 09:07:45;;;;;;;6.25;2.47;;;;;;;3.59;60.51;95954.81;1736480;82;25803;-83
2022/01/30 09:10:12;;;;;;;7.60;1.92;;;;;;;3.57;60.53;95979.03;1736439;82;28387;-83
2022/01/30 09:12:39;;;;;;;10.40;3.65;;;;;;;3.55;60.71;95957.06;1736298;82;25689;-85
2022/01/30 09:15:10;;;;;;;7.35;3.00;;;;;;;3.53;60.80;95984.95;1736344;82;25306;-83
2022/01/30 09:17:39;;;;;;;5.78;2.15;;;;;;;3.47;61.08;95990.61;1736358;82;26292;-83
2022/01/30 09:20:07;;;;;;;7.20;2.00;;;;;;;3.41;61.53;95991.91;1736380;82;25508;-82
2022/01/30 09:22:34;;;;;;;11.12;3.15;;;;;;;3.23;61.86;96017.30;1736366;82;27392;-82
2022/01/30 09:25:00;;;;;;;6.72;2.40;;;;;;;3.09;62.47;96012.11;1736367;82;25275;-83
2022/01/30 09:27:27;;;;;;;5.60;2.27;;;;;;;2.93;63.14;96036.42;1736321;82;25752;-81
2022/01/30 09:29:54;;;;;;;6.08;2.83;;;;;;;2.64;64.17;96031.66;1736354;82;25973;-82
2022/01/30 09:32:21;;;;;;;9.23;3.90;;;;;;;2.45;64.75;96042.48;1736334;82;25776;-80
2022/01/30 09:34:47;;;;;;;9.18;3.00;;;;;;;2.33;65.55;96017.40;1736354;82;27457;-81
2022/01/30 09:37:14;;;;;;;9.98;4.40;;;;;;;2.17;66.22;96035.01;1736239;82;25700;-80
2022/01/30 09:39:41;;;;;;;9.28;3.10;;;;;;;2.08;66.71;96030.81;1736376;82;25268;-79
2022/01/30 09:42:08;;;;;;;6.53;2.40;;;;;;;1.99;67.20;96036.79;1736128;82;26209;-79
2022/01/30 09:44:41;;;;;;;13.30;4.35;;;;;;;1.89;67.91;96036.80;1736208;82;25742;-79
2022/01/30 09:47:13;;;;;;;10.50;3.12;;;;;;;1.84;68.26;96032.54;1736404;82;28266;-79
2022/01/30 09:49:50;;;;;;;10.85;4.10;;;;;;;1.86;68.71;96025.20;1736286;82;26472;-88
2022/01/30 09:52:17;;;;;;;15.93;5.90;;;;;;;1.92;68.76;96029.77;1736174;82;25709;-82
2022/01/30 09:54:45;;;;;;;7.80;2.42;;;;;;;1.97;69.08;96024.68;1736308;82;25740;-81
2022/01/30 09:57:12;;;;;;;17.10;5.60;;;;;;;1.99;69.00;96042.62;1736238;82;25917;-87
2022/01/30 09:59:39;;;;;;;9.70;3.72;;;;;;;2.01;69.32;96021.45;1736405;82;27568;-81
2022/01/30 10:02:07;;;;;;;7.47;2.98;;;;;;;2.00;69.26;96048.26;1736338;82;25745;-79
2022/01/30 10:04:35;;;;;;;12.60;3.85;;;;;;;2.03;69.26;96027.92;1736332;82;25759;-77
2022/01/30 10:07:13;;;;;;;6.25;2.22;;;;;;;2.08;69.29;96012.18;1736338;82;26271;-81
2022/01/30 10:09:43;;;;;;;9.75;2.30;;;;;;;2.13;69.19;96001.80;1735637;82;25843;-83
2022/01/30 10:12:16;;;;;;;7.20;1.98;;;;;;;2.19;69.10;95965.06;1735081;82;28887;-80
2022/01/30 10:15:07;;;;;;;9.23;2.52;;;;;;;2.23;68.95;95995.62;1736247;82;25697;-78
2022/01/30 10:17:49;;;;;;;8.10;3.85;;;;;;;2.23;68.91;95984.97;1736300;82;25836;-81
2022/01/30 10:20:20;;;;;;;8.63;3.67;;;;;;;2.24;68.80;96006.59;1731978;82;25696;-79
2022/01/30 10:23:01;;;;;;;10.00;2.55;;;;;;;2.26;68.72;96013.05;1736417;82;25823;-82
2022/01/30 10:25:37;;;;;;;10.85;2.90;;;;;;;2.26;68.67;95996.57;1706918;84;28274;-80
2022/01/30 10:28:13;;;;;;;6.78;2.42;;;;;;;2.29;68.54;95997.52;1706853;84;25292;-81
2022/01/30 10:30:56;;;;;;;6.45;2.33;;;;;;;2.33;68.59;95989.44;1706898;83;26508;-78
2022/01/30 10:33:47;;;;;;;11.85;3.75;;;;;;;2.36;68.32;95971.75;1724529;82;25776;-79
2022/01/30 10:36:24;;;;;;;9.98;4.12;;;;;;;2.41;68.29;95981.32;1724302;82;25784;-81
2022/01/30 10:39:06;;;;;;;14.45;5.65;;;;;;;2.47;68.22;95988.52;1724644;83;27380;-81
2022/01/30 10:41:43;;;;;;;11.20;3.98;;;;;;;2.52;68.27;95983.44;1724484;83;25780;-82
2022/01/30 10:44:10;;;;;;;12.95;5.00;;;;;;;2.57;68.21;95994.81;1724166;81;25502;-81
2022/01/30 10:46:45;;;;;;;14.85;5.78;;;;;;;2.54;68.24;95977.37;1732967;81;25650;-85
2022/01/30 10:49:21;;;;;;;11.28;3.77;;;;;;;2.53;68.27;95975.76;1754726;81;25703;-80
2022/01/30 10:52:01;;;;;;;11.85;3.65;;;;;;;2.58;68.19;95980.98;1754521;81;28200;-83
2022/01/30 10:54:34;;;;;;;9.00;2.90;;;;;;;2.64;68.07;95969.05;1754567;81;25742;-82
2022/01/30 10:57:08;;;;;;;17.07;7.08;;;;;;;2.72;67.88;95960.89;1754607;81;25752;-84
2022/01/30 10:59:38;;;;;;;14.20;6.42;;;;;;;2.84;67.83;95967.30;1754640;80;26121;-82
2022/01/30 11:02:17;;;;;;;19.80;6.40;;;;;;;2.93;67.63;95961.79;1754459;80;25672;-82
2022/01/30 11:04:45;;;;;;;12.18;4.53;;;;;;;2.96;67.55;95973.39;1754658;81;27434;-83
2022/01/30 11:07:16;;;;;;;11.08;4.30;;;;;;;2.98;67.17;95960.19;1754582;81;25776;-81
2022/01/30 11:10:06;;;;;;;14.30;4.05;;;;;;;2.97;67.22;95966.53;1754284;81;25265;-82
2022/01/30 11:12:44;;;;;;;9.45;3.80;;;;;;;2.94;67.09;95938.94;1754010;81;25444;-87
2022/01/30 11:15:16;;;;;;;12.25;3.80;;;;;;;2.86;67.12;95973.77;1750160;81;25738;-84
2022/01/30 11:17:28;;;;;;;12.00;3.33;;;;;;;2.84;67.20;95961.97;1750945;80;27377;-83
2022/01/30 11:19:57;;;;;;;9.40;4.20;;;;;;;2.85;67.19;95954.80;1754575;81;26279;-82
2022/01/30 11:22:27;;;;;;;14.98;6.28;;;;;;;2.85;67.33;95953.47;1749324;81;25742;-82
2022/01/30 11:25:04;;;;;;;11.50;3.92;;;;;;;2.78;67.19;95938.77;1753696;80;25811;-85
2022/01/30 11:27:32;;;;;;;13.38;5.10;;;;;;;2.78;67.24;95956.09;1753528;81;25795;-85
2022/01/30 11:30:00;;;;;;;13.15;5.15;;;;;;;2.79;67.26;95952.91;1723968;81;27398;-84
2022/01/30 11:32:27;;;;;;;11.57;3.60;;;;;;;2.78;67.43;95955.26;1754457;80;25744;-87
2022/01/30 11:34:56;;;;;;;9.35;3.20;;;;;;;2.72;67.38;95970.72;1754609;80;25712;-83
2022/01/30 11:37:27;;;;;;;7.05;2.60;;;;;;;2.66;67.57;95972.31;1754587;81;26110;-86
2022/01/30 11:39:53;;;;;;;11.25;3.05;;;;;;;2.62;67.61;95983.58;1753867;81;25741;-83
2022/01/30 11:42:37;;;;;;;6.33;2.52;;;;;;;2.49;67.99;95974.50;1754538;81;28388;-83
2022/01/30 11:45:21;;;;;;;6.67;2.72;;;;;;;2.43;68.22;95985.91;1755658;81;25807;-86
2022/01/30 11:48:03;;;;;;;10.10;2.25;;;;;;;2.34;68.50;95965.79;1759804;80;26203;-85
2022/01/30 11:50:33;;;;;;;6.03;2.15;;;;;;;2.21;68.98;95982.18;1759959;81;25768;-84
2022/01/30 11:53:07;;;;;;;5.90;2.40;;;;;;;2.08;69.33;96003.69;1760055;81;25778;-82
2022/01/30 11:56:00;;;;;;;9.50;3.08;;;;;;;2.03;69.61;95997.31;1760069;80;27363;-89
2022/01/30 11:58:38;;;;;;;9.53;2.75;;;;;;;1.95;70.10;95998.77;1759101;81;26603;-81
2022/01/30 12:01:36;;;;;;;8.38;3.00;;;;;;;1.87;70.12;95994.91;1760142;81;25669;-85
2022/01/30 12:04:12;;;;;;;9.83;3.62;;;;;;;1.77;70.58;95992.08;1760034;81;26157;-80
2022/01/30 12:06:47;;;;;;;8.40;2.92;;;;;;;1.67;70.90;95988.92;1760064;80;25819;-80
2022/01/30 12:09:26;;;;;;;9.45;3.58;;;;;;;1.64;70.94;95995.12;1760283;81;27400;-80
2022/01/30 12:11:55;;;;;;;10.35;4.50;;;;;;;1.62;71.47;96013.92;1758955;81;25775;-80
2022/01/30 12:14:30;;;;;;;14.93;4.90;;;;;;;1.58;71.65;96046.39;1759363;81;25977;-81
2022/01/30 12:17:05;;;;;;;19.90;6.67;;;;;;;1.49;71.89;96036.39;1756330;81;25802;-82
2022/01/30 12:19:40;;;;;;;16.95;6.75;;;;;;;1.46;72.39;96040.75;1752933;81;25863;-83
2022/01/30 12:22:27;;;;;;;11.00;4.70;;;;;;;1.47;72.36;96036.25;1723631;83;27425;-80
2022/01/30 12:25:20;;;;;;;13.35;5.15;;;;;;;1.38;72.46;96028.91;1720791;82;25755;-86
2022/01/30 12:27:49;;;;;;;16.05;6.08;;;;;;;1.33;72.71;96033.95;1721918;83;25763;-84
2022/01/30 12:30:34;;;;;;;17.25;6.20;;;;;;;1.21;73.02;96037.59;1734197;82;26021;-85
2022/01/30 12:33:01;;;;;;;18.10;6.95;;;;;;;1.16;73.16;96028.05;1686474;84;26586;-81
2022/01/30 12:35:29;;;;;;;12.95;4.55;;;;;;;1.18;73.21;96050.45;1691463;83;27415;-81
2022/01/30 12:37:56;;;;;;;13.13;4.92;;;;;;;1.13;73.35;96049.67;1691484;83;26427;-86
2022/01/30 12:40:23;;;;;;;13.30;5.60;;;;;;;1.17;73.50;96038.17;1676285;85;25940;-84
2022/01/30 12:42:49;;;;;;;12.33;4.37;;;;;;;1.20;73.63;96019.20;1691548;83;25798;-82
2022/01/30 12:45:16;;;;;;;17.98;7.00;;;;;;;1.22;73.84;96009.19;1691542;83;25822;-81
2022/01/30 12:47:53;;;;;;;15.10;6.60;;;;;;;1.25;73.73;96026.92;1691631;83;27581;-81
2022/01/30 12:50:25;;;;;;;11.65;4.97;;;;;;;1.31;73.92;96013.40;1691103;84;25891;-81